createdAt,value
2018-09-20T00:01:20.250Z,3.93
2018-09-20T00:03:47.919Z,4.53
2018-09-20T00:06:15.606Z,4.23
2018-09-20T00:08:45.191Z,4.30
2018-09-20T00:11:12.819Z,5.40
2018-09-20T00:13:40.478Z,4.37
2018-09-20T00:16:08.195Z,5.27
2018-09-20T00:18:35.830Z,4.90
2018-09-20T00:21:03.519Z,5.40
2018-09-20T00:23:31.478Z,5.40
2018-09-20T00:25:59.190Z,4.80
2018-09-20T00:28:27.850Z,5.30
2018-09-20T00:30:55.502Z,4.40
2018-09-20T00:33:23.102Z,4.80
2018-09-20T00:35:50.718Z,4.30
2018-09-20T00:38:18.491Z,5.53
2018-09-20T00:40:46.052Z,4.60
2018-09-20T00:43:13.739Z,5.90
2018-09-20T00:45:41.502Z,5.57
2018-09-20T00:48:09.142Z,4.70
2018-09-20T00:50:36.904Z,4.50
2018-09-20T00:53:04.677Z,4.40
2018-09-20T00:55:32.371Z,5.73
2018-09-20T00:58:00.046Z,4.73
2018-09-20T01:00:27.685Z,4.90
2018-09-20T01:02:55.359Z,5.40
2018-09-20T01:05:23.034Z,5.40
2018-09-20T01:07:50.702Z,5.40
2018-09-20T01:10:18.374Z,4.90
2018-09-20T01:12:46.016Z,5.03
2018-09-20T01:15:13.687Z,5.33
2018-09-20T01:17:41.403Z,5.47
2018-09-20T01:20:09.106Z,5.03
2018-09-20T01:22:36.838Z,5.23
2018-09-20T01:25:04.539Z,4.87
2018-09-20T01:27:32.167Z,5.40
2018-09-20T01:29:59.870Z,5.53
2018-09-20T01:32:27.494Z,4.50
2018-09-20T01:34:58.346Z,4.70
2018-09-20T01:37:25.985Z,4.37
2018-09-20T01:39:53.599Z,4.40
2018-09-20T01:42:21.287Z,4.13
2018-09-20T01:44:48.942Z,4.77
2018-09-20T01:47:16.557Z,5.33
2018-09-20T01:49:44.193Z,5.13
2018-09-20T01:52:11.841Z,5.13
2018-09-20T01:54:39.534Z,4.27
2018-09-20T01:57:07.160Z,3.90
2018-09-20T01:59:34.846Z,4.70
2018-09-20T02:03:05.772Z,4.00
2018-09-20T02:05:33.433Z,4.70
2018-09-20T02:08:01.306Z,5.00
2018-09-20T02:10:29.030Z,4.97
2018-09-20T02:12:56.727Z,5.63
2018-09-20T02:15:24.390Z,5.13
2018-09-20T02:17:53.124Z,4.13
2018-09-20T02:20:20.771Z,5.53
2018-09-20T02:22:49.431Z,5.97
2018-09-20T02:25:17.034Z,5.67
2018-09-20T02:27:44.702Z,4.70
2018-09-20T02:30:12.350Z,5.87
2018-09-20T02:32:40.015Z,5.27
2018-09-20T02:35:07.750Z,5.60
2018-09-20T02:37:35.433Z,5.30
2018-09-20T02:40:03.130Z,5.53
2018-09-20T02:42:30.782Z,4.00
2018-09-20T02:44:58.435Z,5.53
2018-09-20T02:47:26.182Z,5.97
2018-09-20T02:49:53.946Z,4.50
2018-09-20T02:52:21.627Z,5.20
2018-09-20T02:54:49.256Z,4.23
2018-09-20T02:57:16.915Z,5.23
2018-09-20T02:59:44.534Z,4.60
2018-09-20T03:02:12.181Z,4.33
2018-09-20T03:04:39.893Z,4.80
2018-09-20T03:07:07.563Z,4.83
2018-09-20T03:09:35.207Z,4.70
2018-09-20T03:12:02.927Z,5.93
2018-09-20T03:14:30.635Z,4.73
2018-09-20T03:16:58.258Z,4.20
2018-09-20T03:19:25.892Z,5.20
2018-09-20T03:21:53.611Z,4.60
2018-09-20T03:24:21.246Z,4.97
2018-09-20T03:26:48.906Z,5.63
2018-09-20T03:29:16.511Z,4.53
2018-09-20T03:31:44.116Z,4.20
2018-09-20T03:34:11.828Z,4.73
2018-09-20T03:36:39.454Z,4.40
2018-09-20T03:39:08.780Z,4.00
2018-09-20T03:41:36.443Z,4.40
2018-09-20T03:44:04.146Z,5.10
2018-09-20T03:46:31.838Z,4.47
2018-09-20T03:48:59.483Z,4.77
2018-09-20T03:51:27.510Z,4.57
2018-09-20T03:53:55.187Z,4.30
2018-09-20T03:56:22.914Z,4.80
2018-09-20T03:58:50.575Z,5.30
2018-09-20T04:01:18.177Z,5.00
2018-09-20T04:03:49.674Z,4.90
2018-09-20T04:06:17.395Z,5.77
2018-09-20T04:08:45.091Z,4.03
2018-09-20T04:11:12.765Z,5.80
2018-09-20T04:13:40.446Z,4.23
2018-09-20T04:16:08.075Z,3.90
2018-09-20T04:18:35.747Z,4.30
2018-09-20T04:21:03.503Z,3.87
2018-09-20T04:23:31.159Z,3.80
2018-09-20T04:25:58.826Z,4.50
2018-09-20T04:28:26.450Z,4.00
2018-09-20T04:30:54.100Z,5.03
2018-09-20T04:33:21.747Z,4.00
2018-09-20T04:35:49.483Z,4.23
2018-09-20T04:38:17.088Z,4.60
2018-09-20T04:40:44.746Z,4.20
2018-09-20T04:43:12.382Z,4.70
2018-09-20T04:45:40.043Z,5.37
2018-09-20T04:48:07.751Z,4.23
2018-09-20T04:50:38.835Z,5.73
2018-09-20T04:53:06.575Z,4.03
2018-09-20T04:55:34.254Z,4.57
2018-09-20T04:58:01.952Z,4.43
2018-09-20T05:00:29.607Z,5.03
2018-09-20T05:02:57.247Z,5.00
2018-09-20T05:05:24.919Z,4.83
2018-09-20T05:07:52.661Z,4.47
2018-09-20T05:10:20.260Z,4.70
2018-09-20T05:12:48.015Z,3.87
2018-09-20T05:15:15.688Z,4.50
2018-09-20T05:17:43.389Z,4.10
2018-09-20T05:20:11.140Z,4.93
2018-09-20T05:22:38.722Z,4.20
2018-09-20T05:25:06.402Z,4.60
2018-09-20T05:27:34.463Z,4.20
2018-09-20T05:30:02.139Z,4.50
2018-09-20T05:32:29.924Z,5.63
2018-09-20T05:34:57.719Z,4.00
2018-09-20T05:37:25.346Z,4.57
2018-09-20T05:39:53.091Z,4.83
2018-09-20T05:42:20.810Z,4.00
2018-09-20T05:44:48.444Z,4.60
2018-09-20T05:47:16.174Z,4.40
2018-09-20T05:49:43.834Z,4.03
2018-09-20T05:52:11.507Z,5.33
2018-09-20T05:54:39.165Z,4.37
2018-09-20T05:57:06.789Z,4.60
2018-09-20T05:59:34.464Z,5.27
2018-09-20T06:02:02.255Z,4.73
2018-09-20T06:04:29.919Z,4.57
2018-09-20T06:06:57.571Z,4.70
2018-09-20T06:09:25.275Z,4.70
2018-09-20T06:11:52.898Z,5.27
2018-09-20T06:14:20.527Z,4.23
2018-09-20T06:16:48.256Z,4.33
2018-09-20T06:19:15.902Z,5.37
2018-09-20T06:21:43.556Z,5.37
2018-09-20T06:24:11.231Z,5.00
2018-09-20T06:26:38.939Z,5.30
2018-09-20T06:29:06.619Z,4.27
2018-09-20T06:31:34.499Z,4.53
2018-09-20T06:34:03.365Z,5.00
2018-09-20T06:36:31.037Z,5.23
2018-09-20T06:38:58.762Z,22.87
2018-09-20T06:41:28.641Z,37.00
2018-09-20T06:43:56.328Z,9.60
2018-09-20T06:46:24.015Z,5.63
2018-09-20T06:48:51.751Z,5.90
2018-09-20T06:51:19.446Z,5.50
2018-09-20T06:53:47.183Z,4.80
2018-09-20T06:56:14.886Z,5.27
2018-09-20T06:58:42.607Z,5.67
2018-09-20T07:01:13.730Z,6.60
2018-09-20T07:03:41.511Z,6.20
2018-09-20T07:06:09.201Z,6.13
2018-09-20T07:08:36.895Z,5.70
2018-09-20T07:11:04.622Z,6.63
2018-09-20T07:13:32.341Z,6.97
2018-09-20T07:16:00.005Z,8.53
2018-09-20T07:18:27.730Z,6.63
2018-09-20T07:20:55.475Z,7.20
2018-09-20T07:23:23.130Z,6.93
2018-09-20T07:25:50.847Z,6.10
2018-09-20T07:28:18.576Z,6.90
2018-09-20T07:30:46.286Z,6.10
2018-09-20T07:33:13.986Z,5.80
2018-09-20T07:35:41.611Z,6.27
2018-09-20T07:38:09.232Z,4.93
2018-09-20T07:40:36.969Z,6.47
2018-09-20T07:43:04.672Z,6.23
2018-09-20T07:45:32.431Z,7.03
2018-09-20T07:48:00.147Z,7.10
2018-09-20T07:50:27.853Z,6.63
2018-09-20T07:52:55.946Z,8.27
2018-09-20T07:55:23.730Z,6.10
2018-09-20T07:57:51.441Z,5.80
2018-09-20T08:00:19.061Z,6.43
2018-09-20T08:02:46.842Z,5.33
2018-09-20T08:05:14.515Z,6.43
2018-09-20T08:07:42.267Z,4.80
2018-09-20T08:10:09.979Z,5.10
2018-09-20T08:12:37.620Z,5.03
2018-09-20T08:15:05.427Z,4.50
2018-09-20T08:17:33.131Z,4.60
2018-09-20T08:20:00.834Z,5.20
2018-09-20T08:22:28.739Z,4.70
2018-09-20T08:24:56.450Z,4.73
2018-09-20T08:27:24.081Z,5.17
2018-09-20T08:29:51.760Z,4.60
2018-09-20T08:32:19.423Z,4.03
2018-09-20T08:34:47.087Z,4.07
2018-09-20T08:37:14.917Z,6.00
2018-09-20T08:39:42.527Z,3.83
2018-09-20T08:42:10.296Z,4.50
2018-09-20T08:44:37.919Z,3.93
2018-09-20T08:47:05.596Z,3.73
2018-09-20T08:49:33.459Z,4.33
2018-09-20T08:52:01.234Z,4.20
2018-09-20T08:54:28.875Z,4.00
2018-09-20T08:56:56.501Z,3.70
2018-09-20T08:59:24.098Z,3.93
2018-09-20T09:01:51.810Z,4.93
2018-09-20T09:04:19.579Z,4.90
2018-09-20T09:06:47.298Z,4.30
2018-09-20T09:09:14.989Z,4.77
2018-09-20T09:11:42.719Z,3.73
2018-09-20T09:14:10.434Z,3.50
2018-09-20T09:16:38.362Z,3.93
2018-09-20T09:19:06.117Z,3.90
2018-09-20T09:21:34.127Z,3.60
2018-09-20T09:24:01.786Z,4.37
2018-09-20T09:26:29.371Z,4.50
2018-09-20T09:28:56.979Z,3.73
2018-09-20T09:31:24.671Z,4.20
2018-09-20T09:33:52.371Z,4.00
2018-09-20T09:36:20.143Z,3.50
2018-09-20T09:38:47.911Z,4.67
2018-09-20T09:41:15.607Z,3.80
2018-09-20T09:43:43.390Z,4.00
2018-09-20T09:46:11.134Z,3.97
2018-09-20T09:48:39.294Z,3.50
2018-09-20T09:51:06.946Z,4.00
2018-09-20T09:53:34.591Z,2.90
2018-09-20T09:56:02.330Z,4.23
2018-09-20T09:58:29.894Z,3.90
2018-09-20T10:00:57.587Z,3.50
2018-09-20T10:03:25.245Z,3.03
2018-09-20T10:05:56.197Z,3.00
2018-09-20T10:08:23.870Z,3.80
2018-09-20T10:10:51.467Z,3.43
2018-09-20T10:13:19.137Z,3.80
2018-09-20T10:15:46.875Z,3.37
2018-09-20T10:18:14.489Z,4.27
2018-09-20T10:20:42.147Z,3.30
2018-09-20T10:23:09.787Z,3.80
2018-09-20T10:25:37.483Z,3.70
2018-09-20T10:28:05.143Z,4.00
2018-09-20T10:30:32.719Z,3.47
2018-09-20T10:33:00.291Z,3.23
2018-09-20T10:35:28.015Z,3.97
2018-09-20T10:37:55.602Z,3.30
2018-09-20T10:40:23.254Z,3.47
2018-09-20T10:42:50.903Z,3.43
2018-09-20T10:45:18.594Z,2.83
2018-09-20T10:47:46.310Z,3.43
2018-09-20T10:50:13.951Z,3.37
2018-09-20T10:52:41.689Z,4.13
2018-09-20T10:55:09.380Z,3.43
2018-09-20T10:57:37.045Z,3.20
2018-09-20T11:00:04.775Z,3.03
2018-09-20T11:02:32.420Z,3.50
2018-09-20T11:05:00.067Z,2.90
2018-09-20T11:07:27.755Z,2.67
2018-09-20T11:09:55.342Z,3.57
2018-09-20T11:12:23.039Z,3.43
2018-09-20T11:14:50.698Z,3.23
2018-09-20T11:17:18.382Z,3.70
2018-09-20T11:19:46.054Z,3.50
2018-09-20T11:22:13.670Z,2.80
2018-09-20T11:24:41.418Z,2.77
2018-09-20T11:27:09.051Z,3.93
2018-09-20T11:29:36.714Z,2.87
2018-09-20T11:32:04.370Z,3.70
2018-09-20T11:34:32.014Z,2.77
2018-09-20T11:36:59.701Z,3.10
2018-09-20T11:39:27.338Z,3.10
2018-09-20T11:41:55.026Z,3.13
2018-09-20T11:44:22.691Z,2.40
2018-09-20T11:46:50.404Z,3.17
2018-09-20T11:49:18.048Z,3.67
2018-09-20T11:51:45.819Z,2.80
2018-09-20T11:54:13.539Z,2.87
2018-09-20T11:56:41.137Z,2.87
2018-09-20T11:59:08.799Z,3.30
2018-09-20T12:01:36.431Z,3.27
2018-09-20T12:04:04.126Z,3.53
2018-09-20T12:06:31.858Z,2.67
2018-09-20T12:09:04.207Z,2.80
2018-09-20T12:11:31.841Z,3.00
2018-09-20T12:13:59.443Z,2.90
2018-09-20T12:16:27.087Z,2.63
2018-09-20T12:18:55.737Z,2.50
2018-09-20T12:21:23.383Z,2.30
2018-09-20T12:23:50.901Z,2.50
2018-09-20T12:26:18.667Z,3.20
2018-09-20T12:28:46.225Z,2.67
2018-09-20T12:31:13.887Z,3.67
2018-09-20T12:33:41.531Z,3.27
2018-09-20T12:36:09.223Z,2.70
2018-09-20T12:38:36.907Z,3.23
2018-09-20T12:41:04.466Z,3.17
2018-09-20T12:43:32.366Z,2.70
2018-09-20T12:46:00.070Z,3.03
2018-09-20T12:48:27.708Z,2.80
2018-09-20T12:50:58.699Z,2.67
2018-09-20T12:53:27.040Z,2.93
2018-09-20T12:55:54.765Z,3.00
2018-09-20T12:58:29.263Z,2.27
2018-09-20T13:00:57.027Z,2.63
2018-09-20T13:03:24.643Z,2.60
2018-09-20T13:05:52.342Z,2.77
2018-09-20T13:08:20.035Z,2.13
2018-09-20T13:10:47.735Z,2.63
2018-09-20T13:13:15.397Z,2.70
2018-09-20T13:15:43.055Z,2.20
2018-09-20T13:18:10.667Z,2.60
2018-09-20T13:20:38.275Z,1.93
2018-09-20T13:23:05.872Z,2.20
2018-09-20T13:25:33.550Z,3.47
2018-09-20T13:28:01.140Z,2.70
2018-09-20T13:30:28.863Z,3.07
2018-09-20T13:32:56.495Z,2.40
2018-09-20T13:35:24.134Z,2.57
2018-09-20T13:37:51.770Z,2.40
2018-09-20T13:40:19.510Z,3.30
2018-09-20T13:42:47.328Z,3.00
2018-09-20T13:45:15.034Z,2.90
2018-09-20T13:47:42.678Z,2.20
2018-09-20T13:50:10.363Z,3.10
2018-09-20T13:52:38.007Z,3.00
2018-09-20T13:55:05.742Z,2.90
2018-09-20T13:57:33.395Z,2.20
2018-09-20T14:00:01.058Z,2.40
2018-09-20T14:02:28.726Z,2.93
2018-09-20T14:04:56.358Z,3.17
2018-09-20T14:07:24.063Z,2.93
2018-09-20T14:09:51.711Z,2.80
2018-09-20T14:12:19.258Z,2.67
2018-09-20T14:14:46.982Z,2.70
2018-09-20T14:17:14.641Z,2.83
2018-09-20T14:19:42.316Z,3.10
2018-09-20T14:22:09.915Z,2.50
2018-09-20T14:24:37.502Z,2.83
2018-09-20T14:27:07.193Z,3.10
2018-09-20T14:29:34.877Z,2.63
2018-09-20T14:32:02.523Z,2.60
2018-09-20T14:34:30.120Z,2.80
2018-09-20T14:36:57.767Z,4.33
2018-09-20T14:39:25.458Z,3.00
2018-09-20T14:41:53.074Z,3.00
2018-09-20T14:44:20.709Z,3.07
2018-09-20T14:46:48.467Z,2.60
2018-09-20T14:49:46.826Z,2.80
2018-09-20T14:52:14.234Z,2.77
2018-09-20T14:54:41.599Z,3.30
2018-09-20T14:57:08.970Z,3.33
2018-09-20T14:59:36.354Z,2.63
2018-09-20T15:02:03.774Z,3.23
2018-09-20T15:04:31.146Z,3.00
2018-09-20T15:06:58.510Z,2.63
2018-09-20T15:09:25.855Z,3.27
2018-09-20T15:11:53.217Z,2.70
2018-09-20T15:14:20.582Z,2.67
2018-09-20T15:16:47.973Z,2.77
2018-09-20T15:19:15.346Z,2.80
2018-09-20T15:21:42.721Z,2.67
2018-09-20T15:24:10.105Z,2.70
2018-09-20T15:26:37.455Z,2.73
2018-09-20T15:29:05.175Z,2.67
2018-09-20T15:31:32.823Z,3.73
2018-09-20T15:34:00.439Z,3.30
2018-09-20T15:36:28.157Z,3.17
2018-09-20T15:38:55.823Z,3.00
2018-09-20T15:41:23.498Z,2.23
2018-09-20T15:43:51.171Z,2.53
2018-09-20T16:01:46.176Z,2.90
2018-09-20T16:04:13.867Z,3.00
2018-09-20T16:06:41.583Z,3.43
2018-09-20T16:09:10.331Z,3.43
2018-09-20T16:11:37.962Z,3.40
2018-09-20T16:14:05.995Z,3.80
2018-09-20T16:16:33.685Z,2.90
2018-09-20T16:19:01.474Z,3.43
2018-09-20T16:21:29.381Z,4.17
2018-09-20T16:23:57.090Z,4.10
2018-09-20T16:26:25.323Z,3.03
2018-09-20T16:29:17.699Z,3.07
2018-09-20T16:34:06.265Z,2.63
2018-09-20T16:36:45.924Z,3.70
2018-09-20T16:39:18.804Z,3.17
2018-09-20T16:41:50.290Z,3.23
2018-09-20T16:44:17.972Z,3.60
2018-09-20T16:46:45.610Z,3.63
2018-09-20T16:49:13.313Z,3.30
2018-09-20T16:51:41.087Z,3.53
2018-09-20T16:54:08.758Z,2.93
2018-09-20T16:56:36.442Z,3.40
2018-09-20T16:59:04.220Z,3.83
2018-09-20T17:01:31.919Z,3.27
2018-09-20T17:03:59.623Z,2.90
2018-09-20T17:06:27.303Z,3.10
2018-09-20T17:08:55.003Z,2.47
2018-09-20T17:11:22.747Z,2.93
2018-09-20T17:13:50.479Z,3.57
2018-09-20T17:16:18.325Z,3.50
2018-09-20T17:18:45.923Z,3.00
2018-09-20T17:21:13.561Z,3.87
2018-09-20T17:23:41.357Z,3.83
2018-09-20T17:26:08.942Z,3.53
2018-09-20T17:28:36.682Z,3.37
2018-09-20T17:31:04.519Z,2.87
2018-09-20T17:33:32.283Z,3.27
2018-09-20T17:36:00.179Z,3.40
2018-09-20T17:38:28.734Z,3.30
2018-09-20T17:40:59.987Z,4.13
2018-09-20T17:43:33.095Z,3.40
2018-09-20T17:46:00.717Z,4.33
2018-09-20T17:48:28.362Z,2.87
2018-09-20T17:50:56.415Z,5.33
2018-09-20T17:53:24.497Z,3.80
2018-09-20T17:55:52.871Z,10.50
2018-09-20T17:58:20.906Z,6.43
2018-09-20T18:00:48.576Z,4.93
2018-09-20T18:03:16.275Z,3.83
2018-09-20T18:05:43.995Z,3.70
2018-09-20T18:08:11.722Z,3.67
2018-09-20T18:10:39.371Z,3.87
2018-09-20T18:13:07.454Z,4.77
2018-09-20T18:15:35.135Z,3.43
2018-09-20T18:18:02.964Z,4.10
2018-09-20T18:20:30.588Z,3.23
2018-09-20T18:22:58.371Z,3.37
2018-09-20T18:25:26.170Z,3.97
2018-09-20T18:27:53.817Z,3.20
2018-09-20T18:30:21.580Z,3.50
2018-09-20T18:32:49.380Z,3.63
2018-09-20T18:35:17.318Z,3.63
2018-09-20T18:37:45.550Z,3.53
2018-09-20T18:40:13.383Z,3.67
2018-09-20T18:42:41.309Z,4.40
2018-09-20T18:45:09.940Z,3.13
2018-09-20T18:47:38.249Z,4.17
2018-09-20T18:50:06.926Z,3.93
2018-09-20T18:52:35.216Z,4.00
2018-09-20T18:55:04.151Z,4.30
2018-09-20T18:57:33.813Z,4.27
2018-09-20T19:00:02.454Z,4.83
2018-09-20T19:02:32.073Z,4.13
2018-09-20T19:05:02.205Z,4.17
2018-09-20T19:07:32.363Z,4.23
2018-09-20T19:10:02.425Z,4.03
2018-09-20T19:12:32.596Z,4.50
2018-09-20T19:15:02.551Z,5.27
2018-09-20T19:17:32.251Z,4.23
2018-09-20T19:20:02.011Z,4.73
2018-09-20T19:22:32.183Z,4.33
2018-09-20T19:25:02.226Z,5.07
2018-09-20T19:27:32.638Z,5.57
2018-09-20T19:30:02.859Z,4.50
2018-09-20T19:32:32.991Z,4.70
2018-09-20T19:35:04.256Z,3.63
2018-09-20T19:37:34.450Z,4.57
2018-09-20T19:40:04.687Z,3.73
2018-09-20T19:42:34.958Z,4.23
2018-09-20T19:45:05.101Z,4.40
2018-09-20T19:47:35.189Z,4.37
2018-09-20T19:50:06.790Z,3.97
2018-09-20T19:52:36.673Z,4.53
2018-09-20T19:55:07.357Z,4.37
2018-09-20T19:57:36.725Z,3.90
2018-09-20T20:00:06.093Z,4.10
2018-09-20T20:02:34.753Z,3.90
2018-09-20T20:05:05.035Z,5.00
2018-09-20T20:07:33.154Z,3.80
2018-09-20T20:10:02.595Z,4.70
2018-09-20T20:12:31.499Z,4.33
2018-09-20T20:14:59.555Z,4.20
2018-09-20T20:17:27.483Z,4.50
2018-09-20T20:19:55.552Z,5.43
2018-09-20T20:22:23.364Z,4.53
2018-09-20T20:24:51.119Z,5.63
2018-09-20T20:27:19.949Z,3.80
2018-09-20T20:29:47.654Z,4.67
2018-09-20T20:32:15.412Z,4.20
2018-09-20T20:34:43.143Z,5.70
2018-09-20T20:37:10.764Z,4.13
2018-09-20T20:39:38.487Z,4.70
2018-09-20T20:42:06.174Z,4.80
2018-09-20T20:44:33.812Z,4.73
2018-09-20T20:47:01.492Z,4.27
2018-09-20T20:49:30.948Z,4.60
2018-09-20T20:52:02.255Z,4.43
2018-09-20T20:54:29.951Z,4.03
2018-09-20T20:56:57.675Z,5.40
2018-09-20T20:59:25.327Z,4.27
2018-09-20T21:01:52.970Z,4.60
2018-09-20T21:04:20.624Z,4.63
2018-09-20T21:06:49.504Z,5.77
2018-09-20T21:09:20.798Z,4.50
2018-09-20T21:11:48.452Z,4.90
2018-09-20T21:14:16.170Z,5.50
2018-09-20T21:16:43.863Z,4.93
2018-09-20T21:19:11.538Z,4.70
2018-09-20T21:21:39.271Z,5.30
2018-09-20T21:24:06.967Z,4.77
2018-09-20T21:26:34.691Z,4.63
2018-09-20T21:29:02.404Z,4.90
2018-09-20T21:31:30.076Z,5.03
2018-09-20T21:33:57.806Z,4.47
2018-09-20T21:37:28.660Z,4.70
2018-09-20T21:39:56.391Z,4.33
2018-09-20T21:42:24.073Z,6.00
2018-09-20T21:44:51.815Z,4.73
2018-09-20T21:47:19.547Z,4.67
2018-09-20T21:49:47.220Z,5.13
2018-09-20T21:52:14.908Z,4.80
2018-09-20T21:54:42.623Z,4.50
2018-09-20T21:57:10.339Z,4.37
2018-09-20T21:59:37.898Z,4.87
2018-09-20T22:02:05.686Z,5.07
2018-09-20T22:04:33.749Z,5.03
2018-09-20T22:07:01.438Z,5.20
2018-09-20T22:09:29.982Z,4.77
2018-09-20T22:11:57.666Z,4.47
2018-09-20T22:14:25.323Z,4.63
2018-09-20T22:16:53.075Z,4.70
2018-09-20T22:19:20.739Z,5.00
2018-09-20T22:21:48.374Z,5.63
2018-09-20T22:24:16.104Z,4.57
2018-09-20T22:26:43.759Z,5.07
2018-09-20T22:29:11.402Z,4.60
2018-09-20T22:31:39.049Z,6.10
2018-09-20T22:34:06.801Z,5.13
2018-09-20T22:36:34.478Z,5.10
2018-09-20T22:39:02.331Z,5.50
2018-09-20T22:41:30.104Z,5.03
2018-09-20T22:43:57.767Z,5.17
2018-09-20T22:46:25.478Z,5.77
2018-09-20T22:48:53.156Z,5.67
2018-09-20T22:51:20.824Z,5.13
2018-09-20T22:53:48.523Z,5.30
2018-09-20T22:56:16.215Z,5.67
2018-09-20T22:58:43.890Z,4.80
2018-09-20T23:01:15.976Z,5.10
2018-09-20T23:03:44.208Z,4.70
2018-09-20T23:06:11.979Z,4.83
2018-09-20T23:08:39.687Z,5.20
2018-09-20T23:11:07.391Z,5.50
2018-09-20T23:13:35.055Z,4.90
2018-09-20T23:16:02.731Z,5.20
2018-09-20T23:18:30.416Z,5.47
2018-09-20T23:20:58.107Z,5.03
2018-09-20T23:23:25.779Z,5.13
2018-09-20T23:25:53.454Z,4.93
2018-09-20T23:28:21.115Z,4.40
2018-09-20T23:30:48.811Z,4.90
2018-09-20T23:33:16.519Z,4.80
2018-09-20T23:35:44.199Z,4.83
2018-09-20T23:38:11.914Z,5.27
2018-09-20T23:40:39.549Z,5.13
2018-09-20T23:43:10.283Z,6.37
2018-09-20T23:45:37.959Z,6.57
2018-09-20T23:48:05.643Z,5.17
2018-09-20T23:50:33.331Z,5.70
2018-09-20T23:53:01.028Z,5.40
2018-09-20T23:55:28.753Z,5.03
2018-09-20T23:57:56.398Z,6.33
